KPAH/PAH METAR and TAF weather

Enter ICAO airport designator
Station Type Date Time Source
KPAH METAR 2020/02/25 12:14 UTC NOAA

KPAH 251214Z 28006KT 2 1/2SM BR OVC002 09/08 A2971 RMK AO2 T00890083


Station Type Date Time Source
KPAH Decoded METAR 2020/02/25 12:14 UTC NOAA

BARKLEY REGIONAL AIRPORT, KY, United States (KPAH) 37-03N 088-46W 118M
Feb 25, 2020 - 07:14 AM EST / 2020.02.25 1214 UTC
Wind: from the W (280 degrees) at 7 MPH (6 KT):0
Visibility: 2 1/2 mile(s):0
Sky conditions: overcast
Weather: mist
Temperature: 48.0 F (8.9 C)
Dew Point: 46.9 F (8.3 C)
Relative Humidity: 96%
Pressure (altimeter): 29.71 in. Hg (1006 hPa)
ob: KPAH 251214Z 28006KT 2 1/2SM BR OVC002 09/08 A2971 RMK AO2 T00890083
cycle: 12

Station Type Date Time Source
KPAH TAF 2020/02/25 12:27 UTC NOAA

TAF KPAH 251125Z 2512/2612 27006KT 1 1/2SM BR VCSH OVC003
FM251500 29006KT 3SM BR OVC005
FM251800 30006KT P6SM OVC009
FM260400 32005KT P6SM OVC009

Example: see airport list